CheckWX is a tool to help pilots better visualize weather data.  It is not intended as a substitute for an official pre-flight weather briefing.

11:38:31 UTC

KRRT METAR
Warroad International Memorial Airport
Warroad, Minnesota, USA
Current

24 mins ago

KRRT 221115Z AUTO 09013G19KT 10SM -RA SCT030 SCT035 OVC060 08/06 A2984 RMK AO2 P0001
Observed
May-22 @ 11:15 UTC
Wind
  • 090° at 13 KTS
  • Gusting to 19 KTS
Visibility
10 SM
Flight Rules
VFR
Conditions
Light Rain
Cloud Levels
  • Scattered at 3,000' AGL
  • Scattered at 3,500' AGL
  • Overcast at 6,000' AGL
Temperature
C / 46°F
Dewpoint
C / 43°F
Humidity
87%
Altimeter
29.84" Hg
Pressure
1010.52 hPa
Current Rain
0.01"
Previous

43 mins ago

KRRT 221056Z AUTO 10015G18KT 7SM -RA SCT031 OVC050 09/07 A2984 RMK AO2
Observed
May-22 @ 10:56 UTC
Wind
  • 100° at 15 KTS
  • Gusting to 18 KTS
Visibility
7 SM
Flight Rules
VFR
Conditions
Light Rain
Cloud Levels
  • Scattered at 3,100' AGL
  • Overcast at 5,000' AGL
Temperature
C / 48°F
Dewpoint
C / 45°F
Humidity
87%
Altimeter
29.84" Hg
Pressure
1010.52 hPa
Previous

1 hour ago

KRRT 221035Z AUTO 11014G19KT 10SM RA SCT050 BKN060 11/06 A2985 RMK AO2
Observed
May-22 @ 10:35 UTC
Wind
  • 110° at 14 KTS
  • Gusting to 19 KTS
Visibility
10 SM
Flight Rules
VFR
Conditions
Rain
Cloud Levels
  • Scattered at 5,000' AGL
  • Broken at 6,000' AGL
Temperature
11°C / 52°F
Dewpoint
C / 43°F
Humidity
72%
Altimeter
29.85" Hg
Pressure
1010.82 hPa